sensor_id;sensor_type;location;lat;lon;timestamp;pressure;altitude;pressure_sealevel;temperature;humidity
69707;BME280;56975;55.726;37.566;2023-08-21T00:00:00;99840.0;;;16.4;78.2
69707;BME280;56975;55.726;37.566;2023-08-21T00:05:00;99850.0;;;16.3;77.7
69707;BME280;56975;55.726;37.566;2023-08-21T00:10:00;99850.0;;;16.6;76.1
69707;BME280;56975;55.726;37.566;2023-08-21T00:15:00;99850.0;;;16.4;75.6
69707;BME280;56975;55.726;37.566;2023-08-21T00:20:00;99850.0;;;15.9;78.6
69707;BME280;56975;55.726;37.566;2023-08-21T00:25:00;99850.0;;;15.9;78.3
69707;BME280;56975;55.726;37.566;2023-08-21T00:30:00;99850.0;;;15.7;78.7
69707;BME280;56975;55.726;37.566;2023-08-21T00:35:00;99860.0;;;15.8;78.1
69707;BME280;56975;55.726;37.566;2023-08-21T00:40:00;99850.0;;;15.7;78.6
69707;BME280;56975;55.726;37.566;2023-08-21T00:45:00;99860.0;;;15.9;77.6
69707;BME280;56975;55.726;37.566;2023-08-21T00:50:00;99860.0;;;15.8;78.3
69707;BME280;56975;55.726;37.566;2023-08-21T00:55:01;99870.0;;;15.1;81.7
69707;BME280;56975;55.726;37.566;2023-08-21T01:00:00;99860.0;;;15.5;80.0
69707;BME280;56975;55.726;37.566;2023-08-21T01:05:00;99860.0;;;15.3;81.0
69707;BME280;56975;55.726;37.566;2023-08-21T01:10:05;99860.0;;;15.0;82.1
69707;BME280;56975;55.726;37.566;2023-08-21T01:15:05;99860.0;;;15.1;81.9
69707;BME280;56975;55.726;37.566;2023-08-21T01:20:00;99860.0;;;15.5;80.2
69707;BME280;56975;55.726;37.566;2023-08-21T01:25:00;99870.0;;;15.0;82.7
69707;BME280;56975;55.726;37.566;2023-08-21T01:30:00;99870.0;;;15.1;82.3
69707;BME280;56975;55.726;37.566;2023-08-21T01:35:00;99870.0;;;14.9;84.2
69707;BME280;56975;55.726;37.566;2023-08-21T01:40:00;99870.0;;;14.9;84.2
69707;BME280;56975;55.726;37.566;2023-08-21T01:45:00;99870.0;;;14.9;84.6
69707;BME280;56975;55.726;37.566;2023-08-21T01:50:00;99870.0;;;14.9;84.1
69707;BME280;56975;55.726;37.566;2023-08-21T01:55:00;99870.0;;;14.9;84.3
69707;BME280;56975;55.726;37.566;2023-08-21T02:00:00;99860.0;;;14.9;84.8
69707;BME280;56975;55.726;37.566;2023-08-21T02:05:00;99870.0;;;15.0;84.0
69707;BME280;56975;55.726;37.566;2023-08-21T02:10:00;99880.0;;;14.7;85.3
69707;BME280;56975;55.726;37.566;2023-08-21T02:15:00;99880.0;;;14.6;85.1
69707;BME280;56975;55.726;37.566;2023-08-21T02:20:00;99880.0;;;14.6;85.2
69707;BME280;56975;55.726;37.566;2023-08-21T02:25:00;99880.0;;;14.7;84.1
69707;BME280;56975;55.726;37.566;2023-08-21T02:30:00;99880.0;;;14.3;85.8
69707;BME280;56975;55.726;37.566;2023-08-21T02:35:00;99880.0;;;14.4;85.5
69707;BME280;56975;55.726;37.566;2023-08-21T02:40:00;99870.0;;;14.1;86.3
69707;BME280;56975;55.726;37.566;2023-08-21T02:45:00;99860.0;;;14.2;85.7
69707;BME280;56975;55.726;37.566;2023-08-21T02:50:00;99870.0;;;14.3;85.2
69707;BME280;56975;55.726;37.566;2023-08-21T02:55:00;99870.0;;;14.5;83.6
69707;BME280;56975;55.726;37.566;2023-08-21T03:00:00;99880.0;;;14.3;85.0
69707;BME280;56975;55.726;37.566;2023-08-21T03:05:00;99880.0;;;14.5;84.0
69707;BME280;56975;55.726;37.566;2023-08-21T03:10:00;99880.0;;;14.3;84.0
69707;BME280;56975;55.726;37.566;2023-08-21T03:15:00;99880.0;;;14.5;83.2
69707;BME280;56975;55.726;37.566;2023-08-21T03:20:00;99890.0;;;14.7;82.4
69707;BME280;56975;55.726;37.566;2023-08-21T03:25:00;99880.0;;;14.8;82.3
69707;BME280;56975;55.726;37.566;2023-08-21T03:30:00;99890.0;;;15.1;80.2
69707;BME280;56975;55.726;37.566;2023-08-21T03:35:00;99880.0;;;14.9;81.5
69707;BME280;56975;55.726;37.566;2023-08-21T03:40:02;99880.0;;;15.0;80.4
69707;BME280;56975;55.726;37.566;2023-08-21T03:45:01;99890.0;;;14.9;80.8
69707;BME280;56975;55.726;37.566;2023-08-21T03:50:00;99890.0;;;15.0;79.9
69707;BME280;56975;55.726;37.566;2023-08-21T03:55:00;99900.0;;;15.2;78.9
69707;BME280;56975;55.726;37.566;2023-08-21T04:00:00;99900.0;;;15.5;77.8
69707;BME280;56975;55.726;37.566;2023-08-21T04:05:00;99890.0;;;15.6;76.3
69707;BME280;56975;55.726;37.566;2023-08-21T04:10:00;99900.0;;;15.4;76.8
69707;BME280;56975;55.726;37.566;2023-08-21T04:15:00;99900.0;;;15.8;75.6
69707;BME280;56975;55.726;37.566;2023-08-21T04:20:00;99900.0;;;15.7;76.2
69707;BME280;56975;55.726;37.566;2023-08-21T04:25:00;99910.0;;;15.8;76.3
69707;BME280;56975;55.726;37.566;2023-08-21T04:30:00;99900.0;;;16.1;75.1
69707;BME280;56975;55.726;37.566;2023-08-21T04:35:00;99910.0;;;16.2;73.6
69707;BME280;56975;55.726;37.566;2023-08-21T04:40:00;99900.0;;;16.2;74.1
69707;BME280;56975;55.726;37.566;2023-08-21T04:45:00;99900.0;;;16.3;73.5
69707;BME280;56975;55.726;37.566;2023-08-21T04:50:00;99910.0;;;16.5;72.3
69707;BME280;56975;55.726;37.566;2023-08-21T04:55:00;99900.0;;;16.5;71.9
69707;BME280;56975;55.726;37.566;2023-08-21T05:00:01;99900.0;;;16.7;70.9
69707;BME280;56975;55.726;37.566;2023-08-21T05:05:00;99900.0;;;16.9;69.7
69707;BME280;56975;55.726;37.566;2023-08-21T05:10:00;99910.0;;;17.2;68.8
69707;BME280;56975;55.726;37.566;2023-08-21T05:15:00;99900.0;;;17.4;68.1
69707;BME280;56975;55.726;37.566;2023-08-21T05:20:00;99900.0;;;17.5;67.5
69707;BME280;56975;55.726;37.566;2023-08-21T05:25:00;99900.0;;;17.6;67.0
69707;BME280;56975;55.726;37.566;2023-08-21T05:30:00;99910.0;;;17.8;66.7
69707;BME280;56975;55.726;37.566;2023-08-21T05:35:00;99900.0;;;17.9;66.1
69707;BME280;56975;55.726;37.566;2023-08-21T05:40:00;99910.0;;;17.9;64.4
69707;BME280;56975;55.726;37.566;2023-08-21T05:45:00;99900.0;;;17.8;64.6
69707;BME280;56975;55.726;37.566;2023-08-21T05:50:00;99890.0;;;18.2;63.2
69707;BME280;56975;55.726;37.566;2023-08-21T05:55:00;99890.0;;;17.9;64.0
69707;BME280;56975;55.726;37.566;2023-08-21T06:00:00;99890.0;;;17.6;65.0
69707;BME280;56975;55.726;37.566;2023-08-21T06:05:00;99890.0;;;18.2;63.3
69707;BME280;56975;55.726;37.566;2023-08-21T06:10:00;99890.0;;;18.5;60.5
69707;BME280;56975;55.726;37.566;2023-08-21T06:15:00;99880.0;;;18.5;61.4
69707;BME280;56975;55.726;37.566;2023-08-21T06:20:00;99880.0;;;18.6;60.5
69707;BME280;56975;55.726;37.566;2023-08-21T06:25:00;99880.0;;;18.3;59.9
69707;BME280;56975;55.726;37.566;2023-08-21T06:30:00;99880.0;;;18.5;59.8
69707;BME280;56975;55.726;37.566;2023-08-21T06:35:00;99880.0;;;19.2;57.0
69707;BME280;56975;55.726;37.566;2023-08-21T06:40:00;99880.0;;;19.2;56.7
69707;BME280;56975;55.726;37.566;2023-08-21T06:45:01;99880.0;;;19.4;56.0
69707;BME280;56975;55.726;37.566;2023-08-21T06:50:00;99880.0;;;19.2;55.7
69707;BME280;56975;55.726;37.566;2023-08-21T06:55:00;99890.0;;;19.4;55.8
69707;BME280;56975;55.726;37.566;2023-08-21T07:00:00;99900.0;;;19.7;54.6
69707;BME280;56975;55.726;37.566;2023-08-21T07:05:01;99900.0;;;19.6;54.3
69707;BME280;56975;55.726;37.566;2023-08-21T07:10:00;99900.0;;;19.9;53.0
69707;BME280;56975;55.726;37.566;2023-08-21T07:15:00;99900.0;;;19.8;53.4
69707;BME280;56975;55.726;37.566;2023-08-21T07:20:00;99900.0;;;19.2;54.6
69707;BME280;56975;55.726;37.566;2023-08-21T07:25:00;99910.0;;;19.9;52.9
69707;BME280;56975;55.726;37.566;2023-08-21T07:30:01;99910.0;;;20.4;52.1
69707;BME280;56975;55.726;37.566;2023-08-21T07:35:00;99900.0;;;20.6;51.1
69707;BME280;56975;55.726;37.566;2023-08-21T07:40:00;99900.0;;;21.3;48.8
69707;BME280;56975;55.726;37.566;2023-08-21T07:45:00;99900.0;;;21.7;48.0
69707;BME280;56975;55.726;37.566;2023-08-21T07:50:00;99900.0;;;20.8;49.9
69707;BME280;56975;55.726;37.566;2023-08-21T07:55:00;99900.0;;;20.5;50.3
69707;BME280;56975;55.726;37.566;2023-08-21T08:00:00;99890.0;;;21.6;47.9
69707;BME280;56975;55.726;37.566;2023-08-21T08:05:03;99890.0;;;22.2;43.6
69707;BME280;56975;55.726;37.566;2023-08-21T08:10:00;99880.0;;;23.4;43.0
69707;BME280;56975;55.726;37.566;2023-08-21T08:15:00;99890.0;;;24.0;41.0
69707;BME280;56975;55.726;37.566;2023-08-21T08:20:00;99900.0;;;23.8;40.1
69707;BME280;56975;55.726;37.566;2023-08-21T08:25:01;99890.0;;;23.6;41.3
69707;BME280;56975;55.726;37.566;2023-08-21T08:30:00;99880.0;;;23.1;41.7
69707;BME280;56975;55.726;37.566;2023-08-21T08:35:00;99880.0;;;23.3;41.7
69707;BME280;56975;55.726;37.566;2023-08-21T08:40:00;99880.0;;;25.9;37.1
69707;BME280;56975;55.726;37.566;2023-08-21T08:45:02;99860.0;;;26.3;35.6
69707;BME280;56975;55.726;37.566;2023-08-21T08:50:02;99870.0;;;24.5;38.3
69707;BME280;56975;55.726;37.566;2023-08-21T08:55:00;99860.0;;;24.0;39.6
69707;BME280;56975;55.726;37.566;2023-08-21T09:00:01;99860.0;;;24.4;38.8
69707;BME280;56975;55.726;37.566;2023-08-21T09:05:00;99850.0;;;26.1;36.4
69707;BME280;56975;55.726;37.566;2023-08-21T09:10:00;99860.0;;;25.4;36.5
69707;BME280;56975;55.726;37.566;2023-08-21T09:15:06;99850.0;;;25.9;36.9
69707;BME280;56975;55.726;37.566;2023-08-21T09:20:03;99850.0;;;26.5;35.1
69707;BME280;56975;55.726;37.566;2023-08-21T09:25:04;99850.0;;;25.1;35.7
69707;BME280;56975;55.726;37.566;2023-08-21T09:30:00;99840.0;;;26.4;34.6
69707;BME280;56975;55.726;37.566;2023-08-21T09:35:13;99840.0;;;27.4;33.1
69707;BME280;56975;55.726;37.566;2023-08-21T09:40:01;99840.0;;;27.8;32.2
69707;BME280;56975;55.726;37.566;2023-08-21T09:45:00;99840.0;;;27.6;31.5
69707;BME280;56975;55.726;37.566;2023-08-21T09:50:00;99840.0;;;28.2;31.8
69707;BME280;56975;55.726;37.566;2023-08-21T09:55:01;99840.0;;;28.7;29.9
69707;BME280;56975;55.726;37.566;2023-08-21T10:00:01;99840.0;;;28.1;31.3
69707;BME280;56975;55.726;37.566;2023-08-21T10:05:01;99830.0;;;28.1;30.4
69707;BME280;56975;55.726;37.566;2023-08-21T10:10:00;99820.0;;;30.2;28.3
69707;BME280;56975;55.726;37.566;2023-08-21T10:15:01;99820.0;;;29.1;29.6
69707;BME280;56975;55.726;37.566;2023-08-21T10:20:03;99820.0;;;28.3;30.1
69707;BME280;56975;55.726;37.566;2023-08-21T10:25:00;99810.0;;;28.6;28.7
69707;BME280;56975;55.726;37.566;2023-08-21T10:30:12;99810.0;;;29.9;26.9
69707;BME280;56975;55.726;37.566;2023-08-21T10:35:00;99810.0;;;29.0;28.2
69707;BME280;56975;55.726;37.566;2023-08-21T10:40:00;99810.0;;;30.5;27.0
69707;BME280;56975;55.726;37.566;2023-08-21T10:45:09;99810.0;;;31.6;25.4
69707;BME280;56975;55.726;37.566;2023-08-21T10:50:03;99800.0;;;32.5;24.6
69707;BME280;56975;55.726;37.566;2023-08-21T10:55:01;99790.0;;;30.3;26.8
69707;BME280;56975;55.726;37.566;2023-08-21T11:00:01;99790.0;;;29.1;28.5
69707;BME280;56975;55.726;37.566;2023-08-21T11:05:00;99790.0;;;30.7;27.3
69707;BME280;56975;55.726;37.566;2023-08-21T11:10:00;99790.0;;;32.5;23.9
69707;BME280;56975;55.726;37.566;2023-08-21T11:15:01;99780.0;;;34.1;22.4
69707;BME280;56975;55.726;37.566;2023-08-21T11:20:02;99780.0;;;30.9;26.3
69707;BME280;56975;55.726;37.566;2023-08-21T11:25:00;99770.0;;;32.9;23.3
69707;BME280;56975;55.726;37.566;2023-08-21T11:30:00;99770.0;;;32.3;23.9
69707;BME280;56975;55.726;37.566;2023-08-21T11:35:00;99760.0;;;31.0;26.4
69707;BME280;56975;55.726;37.566;2023-08-21T11:40:06;99750.0;;;30.9;24.5
69707;BME280;56975;55.726;37.566;2023-08-21T11:45:01;99750.0;;;33.6;22.8
69707;BME280;56975;55.726;37.566;2023-08-21T11:50:03;99760.0;;;33.9;22.8
69707;BME280;56975;55.726;37.566;2023-08-21T11:55:00;99760.0;;;32.3;24.0
69707;BME280;56975;55.726;37.566;2023-08-21T12:00:00;99760.0;;;34.1;21.4
69707;BME280;56975;55.726;37.566;2023-08-21T12:05:03;99760.0;;;31.5;23.8
69707;BME280;56975;55.726;37.566;2023-08-21T12:10:01;99760.0;;;33.2;21.1
69707;BME280;56975;55.726;37.566;2023-08-21T12:15:00;99750.0;;;32.7;22.3
69707;BME280;56975;55.726;37.566;2023-08-21T12:20:00;99750.0;;;32.1;23.4
69707;BME280;56975;55.726;37.566;2023-08-21T12:25:00;99740.0;;;32.2;23.7
69707;BME280;56975;55.726;37.566;2023-08-21T12:30:01;99740.0;;;31.5;23.5
69707;BME280;56975;55.726;37.566;2023-08-21T12:35:00;99730.0;;;30.4;26.3
69707;BME280;56975;55.726;37.566;2023-08-21T12:40:00;99730.0;;;30.8;26.0
69707;BME280;56975;55.726;37.566;2023-08-21T12:45:02;99720.0;;;31.0;25.9
69707;BME280;56975;55.726;37.566;2023-08-21T12:50:00;99730.0;;;32.4;24.2
69707;BME280;56975;55.726;37.566;2023-08-21T12:55:00;99710.0;;;30.4;25.9
69707;BME280;56975;55.726;37.566;2023-08-21T13:00:00;99710.0;;;32.9;23.0
69707;BME280;56975;55.726;37.566;2023-08-21T13:10:00;99710.0;;;31.6;24.4
69707;BME280;56975;55.726;37.566;2023-08-21T13:15:01;99690.0;;;30.7;26.0
69707;BME280;56975;55.726;37.566;2023-08-21T13:35:00;99690.0;;;29.0;27.1
69707;BME280;56975;55.726;37.566;2023-08-21T13:55:01;99660.0;;;29.0;28.0
69707;BME280;56975;55.726;37.566;2023-08-21T14:00:00;99660.0;;;29.5;27.5
69707;BME280;56975;55.726;37.566;2023-08-21T14:05:00;99660.0;;;28.6;28.5
69707;BME280;56975;55.726;37.566;2023-08-21T14:10:01;99660.0;;;27.1;29.9
69707;BME280;56975;55.726;37.566;2023-08-21T14:15:00;99660.0;;;28.0;29.4
69707;BME280;56975;55.726;37.566;2023-08-21T14:20:00;99650.0;;;28.5;28.4
69707;BME280;56975;55.726;37.566;2023-08-21T14:35:00;99650.0;;;30.5;26.0
69707;BME280;56975;55.726;37.566;2023-08-21T14:40:00;99660.0;;;30.5;25.4
69707;BME280;56975;55.726;37.566;2023-08-21T14:45:00;99650.0;;;31.9;23.7
69707;BME280;56975;55.726;37.566;2023-08-21T14:50:00;99650.0;;;30.4;24.9
69707;BME280;56975;55.726;37.566;2023-08-21T14:55:00;99650.0;;;29.8;25.6
69707;BME280;56975;55.726;37.566;2023-08-21T15:00:00;99650.0;;;29.2;25.8
69707;BME280;56975;55.726;37.566;2023-08-21T15:05:02;99650.0;;;29.4;25.6
69707;BME280;56975;55.726;37.566;2023-08-21T15:10:00;99650.0;;;30.0;25.2
69707;BME280;56975;55.726;37.566;2023-08-21T15:15:00;99640.0;;;29.0;26.5
69707;BME280;56975;55.726;37.566;2023-08-21T15:20:00;99630.0;;;29.1;26.7
69707;BME280;56975;55.726;37.566;2023-08-21T15:25:00;99640.0;;;29.2;26.6
69707;BME280;56975;55.726;37.566;2023-08-21T15:30:00;99640.0;;;29.8;25.8
69707;BME280;56975;55.726;37.566;2023-08-21T15:35:01;99640.0;;;27.4;28.2
69707;BME280;56975;55.726;37.566;2023-08-21T15:40:00;99630.0;;;29.0;26.0
69707;BME280;56975;55.726;37.566;2023-08-21T15:45:00;99640.0;;;28.0;27.6
69707;BME280;56975;55.726;37.566;2023-08-21T15:50:00;99630.0;;;27.8;28.0
69707;BME280;56975;55.726;37.566;2023-08-21T15:55:00;99640.0;;;26.9;29.1
69707;BME280;56975;55.726;37.566;2023-08-21T16:00:00;99630.0;;;25.7;30.7
69707;BME280;56975;55.726;37.566;2023-08-21T16:05:08;99630.0;;;25.3;31.9
69707;BME280;56975;55.726;37.566;2023-08-21T16:10:00;99630.0;;;24.5;32.5
69707;BME280;56975;55.726;37.566;2023-08-21T16:15:00;99630.0;;;23.8;33.5
69707;BME280;56975;55.726;37.566;2023-08-21T16:20:00;99640.0;;;23.8;34.0
69707;BME280;56975;55.726;37.566;2023-08-21T16:25:00;99640.0;;;23.9;33.4
69707;BME280;56975;55.726;37.566;2023-08-21T16:30:00;99630.0;;;23.8;33.4
69707;BME280;56975;55.726;37.566;2023-08-21T16:35:00;99640.0;;;23.0;35.2
69707;BME280;56975;55.726;37.566;2023-08-21T16:40:00;99640.0;;;22.8;36.1
69707;BME280;56975;55.726;37.566;2023-08-21T16:45:00;99640.0;;;22.4;36.7
69707;BME280;56975;55.726;37.566;2023-08-21T16:50:00;99630.0;;;22.2;37.3
69707;BME280;56975;55.726;37.566;2023-08-21T16:55:00;99630.0;;;22.1;38.0
69707;BME280;56975;55.726;37.566;2023-08-21T17:00:00;99630.0;;;21.7;38.2
69707;BME280;56975;55.726;37.566;2023-08-21T17:05:00;99630.0;;;21.3;40.0
69707;BME280;56975;55.726;37.566;2023-08-21T17:10:00;99620.0;;;21.1;40.7
69707;BME280;56975;55.726;37.566;2023-08-21T17:15:01;99620.0;;;21.0;41.1
69707;BME280;56975;55.726;37.566;2023-08-21T17:20:00;99620.0;;;21.0;41.3
69707;BME280;56975;55.726;37.566;2023-08-21T17:25:01;99630.0;;;20.7;42.5
69707;BME280;56975;55.726;37.566;2023-08-21T17:30:00;99620.0;;;20.6;42.0
69707;BME280;56975;55.726;37.566;2023-08-21T17:35:00;99630.0;;;20.5;43.2
69707;BME280;56975;55.726;37.566;2023-08-21T17:40:00;99630.0;;;20.5;42.8
69707;BME280;56975;55.726;37.566;2023-08-21T17:45:00;99620.0;;;20.5;42.5
69707;BME280;56975;55.726;37.566;2023-08-21T17:50:00;99630.0;;;20.4;43.0
69707;BME280;56975;55.726;37.566;2023-08-21T17:55:00;99620.0;;;20.3;43.6
69707;BME280;56975;55.726;37.566;2023-08-21T18:00:00;99620.0;;;20.1;44.1
69707;BME280;56975;55.726;37.566;2023-08-21T18:05:00;99620.0;;;20.0;43.5
69707;BME280;56975;55.726;37.566;2023-08-21T18:10:00;99620.0;;;20.0;43.6
69707;BME280;56975;55.726;37.566;2023-08-21T18:15:01;99620.0;;;19.8;44.0
69707;BME280;56975;55.726;37.566;2023-08-21T18:20:00;99620.0;;;19.7;44.0
69707;BME280;56975;55.726;37.566;2023-08-21T18:25:00;99610.0;;;19.7;44.3
69707;BME280;56975;55.726;37.566;2023-08-21T18:30:03;99620.0;;;19.6;44.4
69707;BME280;56975;55.726;37.566;2023-08-21T18:35:00;99610.0;;;19.6;44.8
69707;BME280;56975;55.726;37.566;2023-08-21T18:40:00;99610.0;;;19.5;45.6
69707;BME280;56975;55.726;37.566;2023-08-21T18:45:00;99600.0;;;19.5;45.5
69707;BME280;56975;55.726;37.566;2023-08-21T18:50:00;99600.0;;;19.4;45.7
69707;BME280;56975;55.726;37.566;2023-08-21T18:55:00;99600.0;;;19.5;45.8
69707;BME280;56975;55.726;37.566;2023-08-21T19:00:02;99600.0;;;19.3;45.8
69707;BME280;56975;55.726;37.566;2023-08-21T19:05:00;99600.0;;;19.3;45.9
69707;BME280;56975;55.726;37.566;2023-08-21T19:10:01;99600.0;;;19.2;46.3
69707;BME280;56975;55.726;37.566;2023-08-21T19:15:00;99600.0;;;19.2;46.7
69707;BME280;56975;55.726;37.566;2023-08-21T19:20:00;99600.0;;;19.1;46.8
69707;BME280;56975;55.726;37.566;2023-08-21T19:25:00;99600.0;;;19.1;47.3
69707;BME280;56975;55.726;37.566;2023-08-21T19:30:00;99590.0;;;19.0;47.2
69707;BME280;56975;55.726;37.566;2023-08-21T19:35:01;99600.0;;;19.0;47.6
69707;BME280;56975;55.726;37.566;2023-08-21T19:40:01;99590.0;;;19.0;47.4
69707;BME280;56975;55.726;37.566;2023-08-21T19:45:00;99580.0;;;19.0;47.8
69707;BME280;56975;55.726;37.566;2023-08-21T19:50:02;99590.0;;;18.9;48.0
69707;BME280;56975;55.726;37.566;2023-08-21T19:55:00;99590.0;;;18.9;47.6
69707;BME280;56975;55.726;37.566;2023-08-21T20:00:00;99590.0;;;18.9;47.8
69707;BME280;56975;55.726;37.566;2023-08-21T20:05:00;99590.0;;;18.8;47.9
69707;BME280;56975;55.726;37.566;2023-08-21T20:10:00;99590.0;;;18.8;47.8
69707;BME280;56975;55.726;37.566;2023-08-21T20:15:02;99600.0;;;18.8;47.8
69707;BME280;56975;55.726;37.566;2023-08-21T20:20:00;99590.0;;;18.8;47.8
69707;BME280;56975;55.726;37.566;2023-08-21T20:25:00;99590.0;;;18.9;47.6
69707;BME280;56975;55.726;37.566;2023-08-21T20:30:00;99580.0;;;19.0;47.8
69707;BME280;56975;55.726;37.566;2023-08-21T20:35:00;99580.0;;;19.0;48.8
69707;BME280;56975;55.726;37.566;2023-08-21T20:40:00;99580.0;;;19.0;48.5
69707;BME280;56975;55.726;37.566;2023-08-21T20:45:00;99580.0;;;19.1;48.1
69707;BME280;56975;55.726;37.566;2023-08-21T20:50:00;99580.0;;;19.1;48.2
69707;BME280;56975;55.726;37.566;2023-08-21T20:55:00;99570.0;;;19.0;48.8
69707;BME280;56975;55.726;37.566;2023-08-21T21:00:00;99570.0;;;19.1;48.6
69707;BME280;56975;55.726;37.566;2023-08-21T21:05:00;99570.0;;;18.9;49.1
69707;BME280;56975;55.726;37.566;2023-08-21T21:10:00;99570.0;;;18.9;49.0
69707;BME280;56975;55.726;37.566;2023-08-21T21:15:00;99570.0;;;19.0;48.9
69707;BME280;56975;55.726;37.566;2023-08-21T21:20:10;99570.0;;;19.0;49.0
69707;BME280;56975;55.726;37.566;2023-08-21T21:25:00;99570.0;;;19.0;49.5
69707;BME280;56975;55.726;37.566;2023-08-21T21:30:00;99570.0;;;18.9;49.7
69707;BME280;56975;55.726;37.566;2023-08-21T21:35:00;99560.0;;;18.8;49.1
69707;BME280;56975;55.726;37.566;2023-08-21T21:40:01;99550.0;;;18.8;49.3
69707;BME280;56975;55.726;37.566;2023-08-21T21:45:00;99550.0;;;18.6;50.2
69707;BME280;56975;55.726;37.566;2023-08-21T21:50:00;99540.0;;;18.5;50.1
69707;BME280;56975;55.726;37.566;2023-08-21T21:55:00;99530.0;;;18.3;50.4
69707;BME280;56975;55.726;37.566;2023-08-21T22:00:00;99530.0;;;18.3;51.2
69707;BME280;56975;55.726;37.566;2023-08-21T22:05:00;99530.0;;;18.2;50.9
69707;BME280;56975;55.726;37.566;2023-08-21T22:10:00;99520.0;;;18.3;50.5
69707;BME280;56975;55.726;37.566;2023-08-21T22:15:00;99520.0;;;18.1;51.1
69707;BME280;56975;55.726;37.566;2023-08-21T22:20:00;99510.0;;;18.0;51.6
69707;BME280;56975;55.726;37.566;2023-08-21T22:25:00;99510.0;;;17.9;52.3
69707;BME280;56975;55.726;37.566;2023-08-21T22:30:00;99500.0;;;17.9;52.3
69707;BME280;56975;55.726;37.566;2023-08-21T22:35:00;99490.0;;;17.8;52.9
69707;BME280;56975;55.726;37.566;2023-08-21T22:40:00;99500.0;;;17.8;53.3
69707;BME280;56975;55.726;37.566;2023-08-21T22:45:01;99490.0;;;17.7;54.1
69707;BME280;56975;55.726;37.566;2023-08-21T22:50:00;99480.0;;;17.6;54.7
69707;BME280;56975;55.726;37.566;2023-08-21T22:55:00;99480.0;;;17.7;54.5
69707;BME280;56975;55.726;37.566;2023-08-21T23:00:00;99480.0;;;17.6;54.9
69707;BME280;56975;55.726;37.566;2023-08-21T23:05:00;99470.0;;;17.6;55.3
69707;BME280;56975;55.726;37.566;2023-08-21T23:10:00;99470.0;;;17.5;55.3
69707;BME280;56975;55.726;37.566;2023-08-21T23:15:00;99460.0;;;17.6;55.2
69707;BME280;56975;55.726;37.566;2023-08-21T23:20:00;99470.0;;;17.6;55.9
69707;BME280;56975;55.726;37.566;2023-08-21T23:25:00;99460.0;;;17.5;55.9
69707;BME280;56975;55.726;37.566;2023-08-21T23:30:00;99470.0;;;17.4;56.6
69707;BME280;56975;55.726;37.566;2023-08-21T23:35:00;99470.0;;;17.4;57.2
69707;BME280;56975;55.726;37.566;2023-08-21T23:40:00;99460.0;;;17.3;57.7
69707;BME280;56975;55.726;37.566;2023-08-21T23:45:00;99460.0;;;17.2;58.1
69707;BME280;56975;55.726;37.566;2023-08-21T23:50:00;99460.0;;;17.2;58.5
69707;BME280;56975;55.726;37.566;2023-08-21T23:55:00;99450.0;;;17.3;57.8
